createdAt,value
2018-01-23T00:00:18.340Z,25.80
2018-01-23T00:02:11.613Z,29.50
2018-01-23T00:03:11.525Z,30.30
2018-01-23T00:05:04.781Z,33.00
2018-01-23T00:06:04.716Z,36.00
2018-01-23T00:07:57.990Z,31.10
2018-01-23T00:08:57.901Z,27.30
2018-01-23T00:10:51.174Z,32.10
2018-01-23T00:11:51.088Z,38.40
2018-01-23T00:13:44.404Z,33.10
2018-01-23T00:14:44.342Z,33.80
2018-01-23T00:16:37.728Z,27.80
2018-01-23T00:17:37.527Z,31.40
2018-01-23T00:19:30.778Z,30.70
2018-01-23T00:20:30.705Z,32.00
2018-01-23T00:22:23.982Z,31.60
2018-01-23T00:23:23.893Z,26.00
2018-01-23T00:25:17.157Z,28.80
2018-01-23T00:26:17.084Z,31.30
2018-01-23T00:28:10.363Z,28.40
2018-01-23T00:29:10.270Z,33.90
2018-01-23T00:31:03.657Z,29.50
2018-01-23T00:32:03.457Z,30.20
2018-01-23T00:33:56.718Z,33.30
2018-01-23T00:34:56.650Z,30.10
2018-01-23T00:36:49.921Z,27.80
2018-01-23T00:37:49.832Z,28.80
2018-01-23T00:39:43.078Z,29.30
2018-01-23T00:40:43.011Z,27.40
2018-01-23T00:42:36.285Z,28.90
2018-01-23T00:43:36.197Z,26.70
2018-01-23T00:45:29.453Z,29.30
2018-01-23T00:46:29.385Z,31.70
2018-01-23T00:48:22.665Z,33.20
2018-01-23T00:49:22.574Z,36.30
2018-01-23T00:51:15.847Z,25.60
2018-01-23T00:52:15.763Z,27.60
2018-01-23T00:54:09.021Z,35.60
2018-01-23T00:55:08.959Z,30.50
2018-01-23T00:57:02.232Z,26.70
2018-01-23T00:58:02.143Z,28.50
2018-01-23T00:59:55.406Z,30.10
2018-01-23T01:00:55.338Z,31.50
2018-01-23T01:02:48.614Z,29.20
2018-01-23T01:03:48.528Z,22.20
2018-01-23T01:05:41.784Z,30.00
2018-01-23T01:06:41.713Z,31.10
2018-01-23T01:08:34.986Z,24.70
2018-01-23T01:09:34.903Z,30.60
2018-01-23T01:11:28.174Z,29.30
2018-01-23T01:12:28.090Z,23.70
2018-01-23T01:14:21.407Z,27.60
2018-01-23T01:15:21.338Z,26.40
2018-01-23T01:17:14.722Z,28.90
2018-01-23T01:18:14.522Z,28.30
2018-01-23T01:20:07.776Z,28.60
2018-01-23T01:21:07.701Z,37.10
2018-01-23T01:23:00.977Z,30.70
2018-01-23T01:24:00.891Z,28.90
2018-01-23T01:25:54.146Z,28.20
2018-01-23T01:26:54.081Z,26.90
2018-01-23T01:28:47.423Z,31.60
2018-01-23T01:29:47.335Z,32.70
2018-01-23T01:31:40.610Z,27.70
2018-01-23T01:32:40.521Z,27.30
2018-01-23T01:34:33.777Z,27.90
2018-01-23T01:35:33.706Z,24.20
2018-01-23T01:37:26.988Z,28.10
2018-01-23T01:38:26.901Z,30.80
2018-01-23T01:40:20.144Z,21.60
2018-01-23T01:41:20.081Z,27.10
2018-01-23T01:43:13.461Z,33.00
2018-01-23T01:44:13.339Z,31.60
2018-01-23T01:46:06.704Z,31.60
2018-01-23T01:47:06.530Z,30.20
2018-01-23T01:48:59.798Z,25.70
2018-01-23T01:49:59.708Z,28.50
2018-01-23T01:51:52.989Z,31.20
2018-01-23T01:52:52.899Z,30.60
2018-01-23T01:54:46.155Z,28.70
2018-01-23T01:55:46.093Z,27.00
2018-01-23T01:57:40.215Z,35.30
2018-01-23T01:58:40.114Z,29.50
2018-01-23T02:00:33.409Z,32.00
2018-01-23T02:01:33.333Z,30.30
2018-01-23T02:03:26.656Z,29.20
2018-01-23T02:04:26.558Z,31.20
2018-01-23T02:06:19.815Z,32.10
2018-01-23T02:07:19.745Z,33.60
2018-01-23T02:09:13.028Z,27.90
2018-01-23T02:10:12.933Z,27.60
2018-01-23T02:12:06.206Z,36.70
2018-01-23T02:13:06.120Z,29.60
2018-01-23T02:14:59.406Z,32.30
2018-01-23T02:15:59.336Z,37.30
2018-01-23T02:17:52.611Z,26.60
2018-01-23T02:18:52.521Z,27.00
2018-01-23T02:20:45.891Z,28.00
2018-01-23T02:21:45.706Z,32.70
2018-01-23T02:23:38.986Z,33.70
2018-01-23T02:24:38.898Z,27.90
2018-01-23T02:26:32.264Z,26.50
2018-01-23T02:27:32.089Z,28.20
2018-01-23T02:29:25.452Z,27.60
2018-01-23T02:30:25.356Z,25.90
2018-01-23T02:32:18.741Z,26.80
2018-01-23T02:33:18.543Z,30.00
2018-01-23T02:35:11.800Z,26.60
2018-01-23T02:36:11.725Z,23.60
2018-01-23T02:38:05.003Z,33.00
2018-01-23T02:39:04.919Z,32.20
2018-01-23T02:40:58.287Z,26.70
2018-01-23T02:41:58.148Z,26.70
2018-01-23T02:43:51.432Z,38.80
2018-01-23T02:44:51.338Z,28.10
2018-01-23T02:46:44.589Z,34.70
2018-01-23T02:47:44.519Z,28.00
2018-01-23T02:49:37.918Z,30.40
2018-01-23T02:50:37.714Z,34.00
2018-01-23T02:52:30.990Z,27.50
2018-01-23T02:53:30.904Z,29.20
2018-01-23T02:55:24.172Z,25.90
2018-01-23T02:56:24.097Z,30.50
2018-01-23T02:58:17.370Z,31.30
2018-01-23T02:59:17.282Z,30.40
2018-01-23T03:01:10.542Z,30.10
2018-01-23T03:02:10.472Z,28.50
2018-01-23T03:04:03.859Z,29.70
2018-01-23T03:05:03.662Z,28.20
2018-01-23T03:06:56.957Z,30.90
2018-01-23T03:07:56.888Z,29.30
2018-01-23T03:09:50.164Z,34.90
2018-01-23T03:10:50.082Z,30.40
2018-01-23T03:12:43.403Z,32.30
2018-01-23T03:13:43.288Z,28.70
2018-01-23T03:15:36.555Z,29.90
2018-01-23T03:16:36.468Z,29.90
2018-01-23T03:18:29.744Z,25.80
2018-01-23T03:19:29.659Z,30.80
2018-01-23T03:21:23.020Z,29.00
2018-01-23T03:22:22.842Z,28.30
2018-01-23T03:24:16.146Z,26.40
2018-01-23T03:25:16.058Z,25.50
2018-01-23T03:27:09.348Z,27.00
2018-01-23T03:28:09.261Z,33.30
2018-01-23T03:30:02.588Z,26.70
2018-01-23T03:31:02.509Z,23.40
2018-01-23T03:32:55.887Z,33.70
2018-01-23T03:33:55.706Z,30.50
2018-01-23T03:35:48.957Z,29.00
2018-01-23T03:36:48.892Z,29.10
2018-01-23T03:38:42.192Z,29.60
2018-01-23T03:39:42.116Z,23.80
2018-01-23T03:41:35.346Z,28.30
2018-01-23T03:42:35.278Z,24.00
2018-01-23T03:44:28.614Z,32.00
2018-01-23T03:45:28.521Z,30.80
2018-01-23T03:47:21.792Z,30.10
2018-01-23T03:48:21.705Z,30.10
2018-01-23T03:50:14.983Z,27.30
2018-01-23T03:51:14.900Z,25.50
2018-01-23T03:53:08.174Z,31.20
2018-01-23T03:54:08.084Z,33.20
2018-01-23T03:56:01.567Z,30.30
2018-01-23T03:57:01.497Z,31.80
2018-01-23T03:58:54.776Z,26.40
2018-01-23T03:59:54.683Z,24.90
2018-01-23T04:01:47.939Z,29.70
2018-01-23T04:02:47.873Z,28.90
2018-01-23T04:04:41.153Z,30.20
2018-01-23T04:05:41.061Z,26.90
2018-01-23T04:07:34.331Z,31.90
2018-01-23T04:08:34.262Z,33.50
2018-01-23T04:10:27.586Z,32.00
2018-01-23T04:11:27.497Z,27.60
2018-01-23T04:13:20.779Z,30.80
2018-01-23T04:14:20.690Z,28.10
2018-01-23T04:16:13.960Z,26.80
2018-01-23T04:17:13.894Z,28.90
2018-01-23T04:19:07.171Z,26.20
2018-01-23T04:20:07.095Z,33.10
2018-01-23T04:22:00.452Z,24.70
2018-01-23T04:23:00.286Z,27.10
2018-01-23T04:24:53.611Z,30.20
2018-01-23T04:25:53.490Z,28.60
2018-01-23T04:27:46.867Z,24.00
2018-01-23T04:28:46.747Z,31.20
2018-01-23T04:30:39.991Z,26.70
2018-01-23T04:31:39.904Z,28.00
2018-01-23T04:33:33.178Z,29.30
2018-01-23T04:34:33.085Z,30.10
2018-01-23T04:36:26.457Z,35.70
2018-01-23T04:37:26.304Z,31.70
2018-01-23T04:39:19.598Z,27.90
2018-01-23T04:40:19.498Z,26.90
2018-01-23T04:42:12.754Z,29.80
2018-01-23T04:43:12.716Z,32.80
2018-01-23T04:45:06.009Z,30.00
2018-01-23T04:46:05.867Z,29.10
2018-01-23T04:47:59.240Z,28.80
2018-01-23T04:48:59.060Z,32.70
2018-01-23T04:50:52.440Z,31.90
2018-01-23T04:51:52.315Z,34.70
2018-01-23T04:53:45.614Z,38.30
2018-01-23T04:54:45.529Z,29.50
2018-01-23T04:56:38.790Z,28.40
2018-01-23T04:57:38.715Z,29.00
2018-01-23T04:59:32.102Z,36.90
2018-01-23T05:00:31.907Z,31.10
2018-01-23T05:02:26.163Z,29.50
2018-01-23T05:03:26.090Z,32.70
2018-01-23T05:05:19.586Z,30.70
2018-01-23T05:06:19.497Z,34.40
2018-01-23T05:08:12.870Z,32.50
2018-01-23T05:09:12.692Z,35.30
2018-01-23T05:11:06.074Z,33.50
2018-01-23T05:12:05.876Z,30.80
2018-01-23T05:13:59.148Z,25.90
2018-01-23T05:14:59.060Z,27.20
2018-01-23T05:16:52.315Z,29.30
2018-01-23T05:17:52.249Z,33.50
2018-01-23T05:19:45.600Z,34.30
2018-01-23T05:20:45.505Z,34.80
2018-01-23T05:22:38.752Z,33.10
2018-01-23T05:23:38.684Z,35.80
2018-01-23T05:25:31.960Z,34.60
2018-01-23T05:26:31.868Z,30.80
2018-01-23T05:28:25.123Z,36.10
2018-01-23T05:29:25.069Z,31.60
2018-01-23T05:31:18.329Z,35.00
2018-01-23T05:32:18.240Z,31.00
2018-01-23T05:34:11.587Z,47.80
2018-01-23T05:35:11.499Z,42.60
2018-01-23T05:37:04.862Z,36.90
2018-01-23T05:38:04.683Z,39.10
2018-01-23T05:39:57.974Z,44.60
2018-01-23T05:40:57.874Z,47.40
2018-01-23T05:42:52.138Z,45.70
2018-01-23T05:43:52.064Z,38.90
2018-01-23T05:45:45.584Z,57.30
2018-01-23T05:46:45.489Z,59.60
2018-01-23T05:48:38.747Z,50.70
2018-01-23T05:49:38.674Z,48.40
2018-01-23T05:51:32.062Z,44.70
2018-01-23T05:52:31.862Z,45.30
2018-01-23T05:54:25.134Z,39.80
2018-01-23T05:55:25.049Z,46.40
2018-01-23T05:57:18.311Z,35.70
2018-01-23T05:58:18.240Z,42.10
2018-01-23T06:00:11.587Z,42.40
2018-01-23T06:01:11.502Z,42.30
2018-01-23T06:03:04.764Z,39.30
2018-01-23T06:04:04.689Z,41.70
2018-01-23T06:05:59.074Z,41.40
2018-01-23T06:06:58.877Z,48.80
2018-01-23T06:08:52.144Z,40.10
2018-01-23T06:09:52.076Z,46.00
2018-01-23T06:11:45.583Z,52.00
2018-01-23T06:12:45.494Z,50.00
2018-01-23T06:14:38.772Z,45.10
2018-01-23T06:15:38.679Z,41.80
2018-01-23T06:17:31.936Z,51.90
2018-01-23T06:18:31.865Z,44.40
2018-01-23T06:20:25.249Z,49.70
2018-01-23T06:21:25.041Z,44.30
2018-01-23T06:23:18.300Z,47.90
2018-01-23T06:24:18.231Z,48.30
2018-01-23T06:26:11.581Z,45.50
2018-01-23T06:27:11.498Z,47.50
2018-01-23T06:29:04.867Z,43.20
2018-01-23T06:30:04.688Z,47.60
2018-01-23T06:31:58.065Z,48.30
2018-01-23T06:32:57.880Z,40.80
2018-01-23T06:34:51.158Z,43.30
2018-01-23T06:35:51.067Z,45.30
2018-01-23T06:37:44.333Z,33.80
2018-01-23T06:38:44.262Z,38.30
2018-01-23T06:40:37.597Z,42.20
2018-01-23T06:41:37.498Z,43.50
2018-01-23T06:43:30.763Z,38.50
2018-01-23T06:44:30.690Z,36.70
2018-01-23T06:46:23.968Z,44.50
2018-01-23T06:47:23.880Z,47.50
2018-01-23T06:49:17.245Z,42.50
2018-01-23T06:50:17.066Z,43.00
2018-01-23T06:52:10.342Z,43.30
2018-01-23T06:53:10.253Z,42.70
2018-01-23T06:55:03.580Z,45.40
2018-01-23T06:56:03.491Z,39.80
2018-01-23T06:57:56.752Z,41.00
2018-01-23T06:58:56.680Z,43.20
2018-01-23T07:00:49.962Z,47.70
2018-01-23T07:01:49.869Z,41.40
2018-01-23T07:03:43.128Z,39.30
2018-01-23T07:04:43.057Z,41.40
2018-01-23T07:06:36.333Z,40.00
2018-01-23T07:07:36.243Z,41.10
2018-01-23T07:09:29.575Z,42.80
2018-01-23T07:10:29.501Z,41.20
2018-01-23T07:12:22.777Z,48.00
2018-01-23T07:13:22.686Z,44.10
2018-01-23T07:15:15.972Z,42.40
2018-01-23T07:16:15.886Z,40.40
2018-01-23T07:18:09.137Z,41.10
2018-01-23T07:19:09.069Z,42.80
2018-01-23T07:21:02.347Z,45.60
2018-01-23T07:22:02.256Z,41.70
2018-01-23T07:23:55.566Z,43.10
2018-01-23T07:24:55.498Z,43.60
2018-01-23T07:26:48.771Z,39.10
2018-01-23T07:27:48.682Z,32.20
2018-01-23T07:29:42.050Z,38.30
2018-01-23T07:30:41.871Z,42.90
2018-01-23T07:32:35.147Z,42.10
2018-01-23T07:33:35.059Z,39.70
2018-01-23T07:35:28.334Z,34.30
2018-01-23T07:36:28.245Z,38.20
2018-01-23T07:38:21.570Z,33.60
2018-01-23T07:39:21.501Z,38.40
2018-01-23T07:41:14.900Z,34.50
2018-01-23T07:42:14.687Z,32.00
2018-01-23T07:44:07.946Z,34.20
2018-01-23T07:45:07.873Z,34.80
2018-01-23T07:47:01.259Z,35.70
2018-01-23T07:48:01.065Z,39.20
2018-01-23T07:49:54.309Z,35.40
2018-01-23T07:50:54.239Z,37.00
2018-01-23T07:52:47.585Z,33.10
2018-01-23T07:53:47.494Z,35.30
2018-01-23T07:55:40.761Z,34.90
2018-01-23T07:56:40.670Z,31.60
2018-01-23T07:58:33.924Z,35.40
2018-01-23T07:59:33.856Z,38.20
2018-01-23T08:01:27.134Z,33.40
2018-01-23T08:02:27.043Z,32.60
2018-01-23T08:04:20.299Z,31.30
2018-01-23T08:05:20.231Z,30.90
2018-01-23T08:07:13.588Z,32.30
2018-01-23T08:08:13.496Z,36.90
2018-01-23T08:10:06.761Z,34.40
2018-01-23T08:11:06.673Z,34.50
2018-01-23T08:12:59.947Z,35.10
2018-01-23T08:13:59.858Z,33.00
2018-01-23T08:15:53.132Z,34.80
2018-01-23T08:16:53.094Z,33.60
2018-01-23T08:18:46.303Z,37.90
2018-01-23T08:19:46.221Z,27.40
2018-01-23T08:21:39.589Z,38.00
2018-01-23T08:22:39.500Z,36.90
2018-01-23T08:24:32.758Z,40.00
2018-01-23T08:25:32.686Z,31.20
2018-01-23T08:27:26.071Z,30.90
2018-01-23T08:28:25.881Z,31.80
2018-01-23T08:30:19.145Z,34.40
2018-01-23T08:31:19.050Z,32.20
2018-01-23T08:33:12.302Z,30.70
2018-01-23T08:34:12.231Z,32.50
2018-01-23T08:36:05.619Z,28.50
2018-01-23T08:37:05.520Z,30.00
2018-01-23T08:38:58.872Z,31.00
2018-01-23T08:39:58.701Z,30.10
2018-01-23T08:41:51.545Z,32.40
2018-01-23T08:42:51.443Z,30.80
2018-01-23T08:44:44.727Z,45.40
2018-01-23T08:45:44.619Z,34.80
2018-01-23T08:47:37.903Z,37.20
2018-01-23T08:48:37.827Z,35.00
2018-01-23T08:50:31.088Z,32.10
2018-01-23T08:51:30.982Z,28.90
2018-01-23T08:53:24.256Z,30.10
2018-01-23T08:54:24.157Z,29.50
2018-01-23T08:56:17.620Z,27.40
2018-01-23T08:57:17.517Z,30.30
2018-01-23T08:59:10.774Z,31.10
2018-01-23T09:00:10.693Z,33.30
2018-01-23T09:02:03.959Z,29.20
2018-01-23T09:03:03.872Z,33.10
2018-01-23T09:04:57.123Z,26.50
2018-01-23T09:05:57.062Z,27.10
2018-01-23T09:07:50.321Z,28.90
2018-01-23T09:08:50.236Z,28.70
2018-01-23T09:10:43.597Z,33.40
2018-01-23T09:11:43.495Z,32.20
2018-01-23T09:13:36.746Z,27.40
2018-01-23T09:14:36.675Z,31.10
2018-01-23T09:16:29.943Z,26.90
2018-01-23T09:17:29.853Z,28.40
2018-01-23T09:19:23.100Z,37.50
2018-01-23T09:20:23.029Z,25.50
2018-01-23T09:22:16.301Z,29.00
2018-01-23T09:23:16.219Z,27.00
2018-01-23T09:25:09.565Z,26.30
2018-01-23T09:26:09.495Z,31.20
2018-01-23T09:28:02.763Z,28.80
2018-01-23T09:29:02.674Z,31.00
2018-01-23T09:30:55.954Z,26.90
2018-01-23T09:31:55.861Z,26.20
2018-01-23T09:33:49.106Z,25.20
2018-01-23T09:34:49.031Z,22.90
2018-01-23T09:36:42.300Z,26.40
2018-01-23T09:37:42.214Z,29.40
2018-01-23T09:39:35.466Z,27.10
2018-01-23T09:40:35.395Z,25.90
2018-01-23T09:42:28.662Z,25.50
2018-01-23T09:43:28.574Z,24.30
2018-01-23T09:45:21.847Z,23.20
2018-01-23T09:46:21.791Z,22.20
2018-01-23T09:48:15.021Z,21.30
2018-01-23T09:49:14.929Z,24.30
2018-01-23T09:51:08.197Z,24.90
2018-01-23T09:52:08.107Z,25.40
2018-01-23T09:54:01.575Z,25.70
2018-01-23T09:55:01.510Z,24.90
2018-01-23T09:56:54.893Z,23.40
2018-01-23T09:57:54.693Z,19.40
2018-01-23T09:59:47.938Z,24.50
2018-01-23T10:00:47.870Z,22.40
2018-01-23T10:02:41.259Z,22.70
2018-01-23T10:03:41.048Z,22.50
2018-01-23T10:05:34.299Z,26.60
2018-01-23T10:06:34.224Z,27.80
2018-01-23T10:08:27.593Z,30.70
2018-01-23T10:09:27.506Z,22.90
2018-01-23T10:11:20.892Z,21.10
2018-01-23T10:12:20.686Z,25.00
2018-01-23T10:14:13.936Z,23.30
2018-01-23T10:15:13.869Z,24.40
2018-01-23T10:17:07.133Z,21.50
2018-01-23T10:18:07.046Z,21.80
2018-01-23T10:20:00.297Z,31.90
2018-01-23T10:21:00.228Z,30.70
2018-01-23T10:22:53.494Z,20.00
2018-01-23T10:23:53.404Z,20.40
2018-01-23T10:25:46.777Z,23.70
2018-01-23T10:26:46.585Z,21.70
2018-01-23T10:28:39.861Z,20.20
2018-01-23T10:29:39.767Z,22.70
2018-01-23T10:31:33.036Z,22.70
2018-01-23T10:32:32.946Z,21.40
2018-01-23T10:34:26.196Z,18.40
2018-01-23T10:35:26.125Z,21.20
2018-01-23T10:37:19.528Z,20.20
2018-01-23T10:38:19.337Z,24.40
2018-01-23T10:40:12.610Z,23.10
2018-01-23T10:41:12.540Z,18.40
2018-01-23T10:43:05.811Z,22.10
2018-01-23T10:44:05.720Z,24.10
2018-01-23T10:45:58.969Z,21.10
2018-01-23T10:46:58.936Z,22.60
2018-01-23T10:48:52.287Z,18.20
2018-01-23T10:49:52.081Z,18.60
2018-01-23T10:51:45.422Z,22.90
2018-01-23T10:52:45.331Z,24.60
2018-01-23T10:54:38.588Z,21.20
2018-01-23T10:55:38.518Z,20.70
2018-01-23T10:57:31.785Z,22.00
2018-01-23T10:58:31.696Z,23.30
2018-01-23T11:00:24.947Z,14.80
2018-01-23T11:01:24.901Z,23.10
2018-01-23T11:03:18.209Z,24.20
2018-01-23T11:04:18.115Z,24.60
2018-01-23T11:06:11.412Z,18.80
2018-01-23T11:07:11.334Z,19.20
2018-01-23T11:09:04.634Z,19.80
2018-01-23T11:10:04.546Z,24.30
2018-01-23T11:11:57.908Z,21.70
2018-01-23T11:12:57.711Z,22.60
2018-01-23T11:14:50.963Z,19.80
2018-01-23T11:15:50.886Z,21.90
2018-01-23T11:17:44.161Z,24.70
2018-01-23T11:18:44.070Z,25.20
2018-01-23T11:20:37.479Z,21.90
2018-01-23T11:21:37.354Z,22.50
2018-01-23T11:23:30.612Z,21.90
2018-01-23T11:24:30.529Z,22.40
2018-01-23T11:26:23.861Z,18.00
2018-01-23T11:27:23.776Z,20.90
2018-01-23T11:29:17.075Z,22.30
2018-01-23T11:30:16.987Z,22.30
2018-01-23T11:32:10.266Z,17.00
2018-01-23T11:33:10.184Z,16.20
2018-01-23T11:35:03.434Z,20.10
2018-01-23T11:36:03.364Z,20.90
2018-01-23T11:37:56.673Z,22.90
2018-01-23T11:38:56.560Z,18.90
2018-01-23T11:40:49.909Z,19.60
2018-01-23T11:41:49.734Z,20.70
2018-01-23T11:43:43.014Z,21.50
2018-01-23T11:44:42.928Z,19.90
2018-01-23T11:46:36.212Z,25.30
2018-01-23T11:47:36.140Z,19.20
2018-01-23T11:49:29.427Z,16.70
2018-01-23T11:50:29.340Z,18.90
2018-01-23T11:52:22.610Z,18.40
2018-01-23T11:53:22.525Z,20.10
2018-01-23T11:55:15.774Z,20.70
2018-01-23T11:56:15.707Z,17.70
2018-01-23T11:58:09.074Z,19.90
2018-01-23T11:59:08.878Z,15.60
2018-01-23T12:01:02.260Z,17.60
2018-01-23T12:02:02.108Z,16.40
2018-01-23T12:03:55.440Z,26.90
2018-01-23T12:04:55.344Z,24.60
2018-01-23T12:06:48.597Z,20.50
2018-01-23T12:07:48.532Z,15.60
2018-01-23T12:09:41.822Z,17.40
2018-01-23T12:10:41.734Z,17.80
2018-01-23T12:12:34.518Z,17.70
2018-01-23T12:13:34.431Z,17.40
2018-01-23T12:15:27.688Z,14.80
2018-01-23T12:16:27.607Z,16.80
2018-01-23T12:18:20.881Z,13.70
2018-01-23T12:19:20.840Z,16.60
2018-01-23T12:21:14.164Z,14.20
2018-01-23T12:22:13.976Z,10.60
2018-01-23T12:24:07.247Z,13.10
2018-01-23T12:25:07.159Z,15.90
2018-01-23T12:27:00.414Z,14.10
2018-01-23T12:28:00.350Z,13.00
2018-01-23T12:29:53.620Z,12.20
2018-01-23T12:30:53.534Z,14.40
2018-01-23T12:32:46.802Z,12.70
2018-01-23T12:33:46.713Z,8.40
2018-01-23T12:35:39.968Z,12.70
2018-01-23T12:36:39.899Z,12.40
2018-01-23T12:38:33.172Z,10.20
2018-01-23T12:39:33.081Z,12.40
2018-01-23T12:41:26.453Z,12.10
2018-01-23T12:42:26.273Z,17.80
2018-01-23T12:44:19.658Z,8.80
2018-01-23T12:45:19.450Z,8.30
2018-01-23T12:47:12.718Z,9.70
2018-01-23T12:48:12.652Z,9.60
2018-01-23T12:50:05.935Z,8.40
2018-01-23T12:51:05.852Z,9.60
2018-01-23T12:52:59.122Z,10.10
2018-01-23T12:53:59.034Z,12.40
2018-01-23T12:55:52.408Z,12.70
2018-01-23T12:56:52.217Z,11.20
2018-01-23T12:58:45.487Z,9.90
2018-01-23T12:59:45.402Z,9.30
2018-01-23T13:01:38.662Z,12.00
2018-01-23T13:02:38.579Z,13.70
2018-01-23T13:04:31.850Z,11.30
2018-01-23T13:05:31.761Z,13.40
2018-01-23T13:07:25.012Z,11.50
2018-01-23T13:08:24.948Z,11.50
2018-01-23T13:10:18.347Z,7.30
2018-01-23T13:11:18.129Z,8.20
2018-01-23T13:13:11.433Z,10.40
2018-01-23T13:14:11.346Z,8.50
2018-01-23T13:16:04.716Z,8.60
2018-01-23T13:17:04.529Z,11.30
2018-01-23T13:18:57.808Z,11.60
2018-01-23T13:19:57.722Z,9.30
2018-01-23T13:21:50.972Z,11.40
2018-01-23T13:22:50.900Z,8.10
2018-01-23T13:24:44.174Z,7.30
2018-01-23T13:25:44.109Z,10.20
2018-01-23T13:27:37.406Z,15.00
2018-01-23T13:28:37.339Z,14.00
2018-01-23T13:30:30.611Z,9.00
2018-01-23T13:31:30.523Z,8.80
2018-01-23T13:33:23.795Z,10.70
2018-01-23T13:34:23.706Z,11.70
2018-01-23T13:36:17.077Z,12.40
2018-01-23T13:37:16.885Z,9.00
2018-01-23T13:39:10.159Z,10.50
2018-01-23T13:40:10.080Z,9.70
2018-01-23T13:42:03.409Z,8.50
2018-01-23T13:43:03.340Z,8.30
2018-01-23T13:44:56.620Z,10.50
2018-01-23T13:45:56.533Z,10.50
2018-01-23T13:47:49.786Z,10.40
2018-01-23T13:48:49.733Z,10.20
2018-01-23T13:50:42.989Z,8.30
2018-01-23T13:51:42.900Z,7.60
2018-01-23T13:53:36.175Z,12.90
2018-01-23T13:54:36.088Z,13.70
2018-01-23T13:56:29.459Z,9.90
2018-01-23T13:57:29.976Z,11.00
2018-01-23T13:59:22.123Z,7.20
2018-01-23T14:00:22.695Z,8.40
2018-01-23T14:02:15.410Z,9.80
2018-01-23T14:03:15.338Z,7.10
2018-01-23T14:05:08.607Z,11.60
2018-01-23T14:06:08.520Z,10.20
2018-01-23T14:08:01.778Z,8.10
2018-01-23T14:09:01.704Z,10.90
2018-01-23T14:10:55.116Z,12.80
2018-01-23T14:11:54.904Z,13.20
2018-01-23T14:13:48.190Z,9.50
2018-01-23T14:14:48.098Z,8.60
2018-01-23T14:16:41.485Z,9.00
2018-01-23T14:17:41.343Z,7.50
2018-01-23T14:19:35.701Z,13.10
2018-01-23T14:20:35.224Z,8.40
2018-01-23T14:22:27.862Z,11.50
2018-01-23T14:23:28.440Z,7.80
2018-01-23T14:25:21.164Z,6.00
2018-01-23T14:26:20.997Z,6.40
2018-01-23T14:28:14.264Z,8.10
2018-01-23T14:29:14.234Z,9.00
2018-01-23T14:31:07.008Z,9.60
2018-01-23T14:32:06.904Z,8.30
2018-01-23T14:34:00.202Z,6.30
2018-01-23T14:35:00.081Z,10.60
2018-01-23T14:36:53.424Z,10.40
2018-01-23T14:37:53.339Z,12.20
2018-01-23T14:39:46.623Z,9.30
2018-01-23T14:40:46.533Z,7.20
2018-01-23T14:42:39.903Z,6.40
2018-01-23T14:43:39.749Z,9.90
2018-01-23T14:45:33.009Z,7.90
2018-01-23T14:46:32.925Z,6.80
2018-01-23T14:48:26.301Z,6.60
2018-01-23T14:49:26.136Z,9.50
2018-01-23T14:51:19.499Z,9.20
2018-01-23T14:52:19.356Z,6.70
2018-01-23T14:54:13.700Z,7.40
2018-01-23T14:55:12.534Z,9.80
2018-01-23T14:57:05.788Z,9.40
2018-01-23T14:58:05.714Z,9.50
2018-01-23T14:59:59.582Z,9.70
2018-01-23T15:00:59.465Z,9.20
2018-01-23T15:02:52.753Z,7.20
2018-01-23T15:03:52.659Z,5.50
2018-01-23T15:05:45.927Z,4.30
2018-01-23T15:06:45.822Z,7.10
2018-01-23T15:08:39.085Z,8.40
2018-01-23T15:09:39.016Z,6.40
2018-01-23T15:11:32.295Z,5.20
2018-01-23T15:12:32.213Z,8.70
2018-01-23T15:14:25.472Z,6.20
2018-01-23T15:15:25.390Z,6.40
2018-01-23T15:17:18.763Z,7.30
2018-01-23T15:18:18.624Z,8.50
2018-01-23T15:20:12.032Z,7.00
2018-01-23T15:21:11.807Z,8.60
2018-01-23T15:23:05.058Z,8.00
2018-01-23T15:24:04.984Z,7.40
2018-01-23T15:25:58.405Z,5.50
2018-01-23T15:26:58.179Z,7.80
2018-01-23T15:28:51.449Z,6.90
2018-01-23T15:29:51.392Z,5.40
2018-01-23T15:31:45.273Z,5.60
2018-01-23T15:32:44.598Z,8.00
2018-01-23T15:34:37.422Z,6.00
2018-01-23T15:35:37.338Z,7.80
2018-01-23T15:37:30.596Z,5.10
2018-01-23T15:38:30.524Z,9.30
2018-01-23T15:40:23.820Z,5.70
2018-01-23T15:41:23.711Z,6.80
2018-01-23T15:43:16.985Z,8.00
2018-01-23T15:44:16.911Z,8.10
2018-01-23T15:46:10.188Z,7.20
2018-01-23T15:47:10.102Z,6.20
2018-01-23T15:49:03.408Z,6.00
2018-01-23T15:50:03.339Z,6.00
2018-01-23T15:51:56.620Z,9.30
2018-01-23T15:52:56.534Z,9.00
2018-01-23T15:54:49.813Z,10.40
2018-01-23T15:55:49.728Z,8.10
2018-01-23T15:57:42.988Z,8.40
2018-01-23T15:58:42.921Z,6.20
2018-01-23T16:00:36.306Z,7.10
2018-01-23T16:01:36.116Z,6.40
2018-01-23T16:03:29.482Z,7.20
2018-01-23T16:04:29.337Z,8.70
2018-01-23T16:06:22.604Z,8.50
2018-01-23T16:07:22.517Z,9.70
2018-01-23T16:09:15.768Z,6.60
2018-01-23T16:10:15.696Z,7.20
2018-01-23T16:12:08.970Z,8.20
2018-01-23T16:13:08.879Z,8.70
2018-01-23T16:15:02.265Z,8.40
2018-01-23T16:16:02.066Z,8.80
2018-01-23T16:17:55.408Z,8.50
2018-01-23T16:18:55.342Z,10.30
2018-01-23T16:20:48.620Z,9.80
2018-01-23T16:21:48.532Z,9.00
2018-01-23T16:23:41.794Z,12.00
2018-01-23T16:24:41.724Z,9.60
2018-01-23T16:26:35.115Z,13.10
2018-01-23T16:27:34.909Z,8.90
2018-01-23T16:29:28.169Z,8.10
2018-01-23T16:30:28.100Z,10.20
2018-01-23T16:32:21.421Z,9.60
2018-01-23T16:33:21.339Z,6.20
2018-01-23T16:35:14.728Z,9.80
2018-01-23T16:36:14.520Z,9.70
2018-01-23T16:38:07.775Z,15.60
2018-01-23T16:39:07.736Z,15.90
2018-01-23T16:41:01.097Z,9.70
2018-01-23T16:42:00.922Z,13.40
2018-01-23T16:43:54.336Z,11.20
2018-01-23T16:44:54.196Z,14.30
2018-01-23T16:46:47.527Z,8.80
2018-01-23T16:47:47.564Z,5.20
2018-01-23T16:49:40.671Z,14.10
2018-01-23T16:50:40.605Z,10.10
2018-01-23T16:52:33.906Z,8.80
2018-01-23T16:53:33.824Z,7.90
2018-01-23T16:55:27.090Z,10.40
2018-01-23T16:56:27.005Z,7.30
2018-01-23T16:58:20.252Z,4.50
2018-01-23T16:59:20.182Z,6.70
2018-01-23T17:01:13.454Z,5.60
2018-01-23T17:02:13.366Z,7.20
2018-01-23T17:04:06.618Z,8.50
2018-01-23T17:05:06.549Z,9.30
2018-01-23T17:06:59.830Z,8.40
2018-01-23T17:07:59.741Z,8.40
2018-01-23T17:09:52.995Z,10.60
2018-01-23T17:10:52.917Z,9.10
2018-01-23T17:12:46.183Z,9.40
2018-01-23T17:13:46.097Z,8.30
2018-01-23T17:15:39.381Z,6.50
2018-01-23T17:16:39.314Z,4.80
2018-01-23T17:18:32.544Z,6.10
2018-01-23T17:19:32.488Z,7.20
2018-01-23T17:21:25.745Z,8.90
2018-01-23T17:22:25.661Z,8.40
2018-01-23T17:24:18.533Z,8.30
2018-01-23T17:25:18.465Z,9.40
2018-01-23T17:27:11.849Z,9.10
2018-01-23T17:28:11.691Z,7.20
2018-01-23T17:30:04.907Z,8.20
2018-01-23T17:31:04.838Z,6.10
2018-01-23T17:32:58.118Z,8.70
2018-01-23T17:33:58.033Z,8.20
2018-01-23T17:35:51.420Z,8.30
2018-01-23T17:36:51.213Z,5.10
2018-01-23T17:38:44.463Z,6.80
2018-01-23T17:39:44.432Z,8.10
2018-01-23T17:41:37.661Z,5.80
2018-01-23T17:42:37.576Z,7.30
2018-01-23T17:44:30.821Z,10.30
2018-01-23T17:45:30.752Z,8.50
2018-01-23T17:47:24.030Z,7.10
2018-01-23T17:48:23.941Z,7.10
2018-01-23T17:50:17.196Z,5.10
2018-01-23T17:51:17.128Z,7.00
2018-01-23T17:53:11.428Z,6.50
2018-01-23T17:54:11.341Z,8.40
2018-01-23T17:56:04.608Z,10.20
2018-01-23T17:57:04.520Z,7.40
2018-01-23T17:58:57.770Z,5.70
2018-01-23T17:59:57.701Z,5.80
2018-01-23T18:01:50.981Z,6.10
2018-01-23T18:02:50.897Z,7.80
2018-01-23T18:04:44.156Z,9.60
2018-01-23T18:05:44.086Z,8.00
2018-01-23T18:07:37.427Z,9.20
2018-01-23T18:08:37.344Z,8.40
2018-01-23T18:10:30.603Z,5.40
2018-01-23T18:11:30.530Z,6.10
2018-01-23T18:13:23.808Z,6.70
2018-01-23T18:14:23.722Z,8.50
2018-01-23T18:16:17.003Z,6.80
2018-01-23T18:17:16.916Z,11.00
2018-01-23T18:19:10.175Z,8.20
2018-01-23T18:20:10.103Z,9.90
2018-01-23T18:22:04.381Z,10.10
2018-01-23T18:23:04.293Z,8.60
2018-01-23T18:24:57.593Z,8.10
2018-01-23T18:25:57.533Z,8.20
2018-01-23T18:27:51.653Z,6.20
2018-01-23T18:28:51.561Z,6.00
2018-01-23T18:30:44.840Z,6.70
2018-01-23T18:31:44.756Z,8.80
2018-01-23T18:33:38.141Z,5.40
2018-01-23T18:34:37.946Z,9.20
2018-01-23T18:36:31.222Z,5.90
2018-01-23T18:37:31.137Z,9.80
2018-01-23T18:39:24.403Z,5.10
2018-01-23T18:40:24.338Z,7.50
2018-01-23T18:42:17.614Z,4.60
2018-01-23T18:43:17.526Z,6.80
2018-01-23T18:45:10.790Z,4.80